createdAt,value
2022-09-09T00:02:16.747Z,72.36
2022-09-09T00:04:50.638Z,72.07
2022-09-09T00:07:27.515Z,72.21
2022-09-09T00:10:04.837Z,72.06
2022-09-09T00:12:39.011Z,72.07
2022-09-09T00:15:15.304Z,72.15
2022-09-09T00:17:53.668Z,72.20
2022-09-09T00:20:29.989Z,72.36
2022-09-09T00:23:07.598Z,71.99
2022-09-09T00:25:42.403Z,72.46
2022-09-09T00:28:20.243Z,72.79
2022-09-09T00:30:50.490Z,72.61
2022-09-09T00:33:23.210Z,73.38
2022-09-09T00:35:53.161Z,73.45
2022-09-09T00:38:27.345Z,73.44
2022-09-09T00:41:01.785Z,73.26
2022-09-09T00:43:33.287Z,73.28
2022-09-09T00:46:25.961Z,73.33
2022-09-09T00:49:02.367Z,73.99
2022-09-09T00:51:47.241Z,73.80
2022-09-09T00:54:33.298Z,73.66
2022-09-09T00:57:15.114Z,73.93
2022-09-09T00:59:50.146Z,73.81
2022-09-09T01:02:29.392Z,73.59
2022-09-09T01:05:09.604Z,73.86
2022-09-09T01:07:37.919Z,73.71
2022-09-09T01:10:13.900Z,73.66
2022-09-09T01:12:44.818Z,73.67
2022-09-09T01:15:25.737Z,73.65
2022-09-09T01:18:02.478Z,73.82
2022-09-09T01:20:43.615Z,73.83
2022-09-09T01:23:29.393Z,74.06
2022-09-09T01:26:27.537Z,73.86
2022-09-09T01:28:58.323Z,73.69
2022-09-09T01:31:38.644Z,73.96
2022-09-09T01:34:13.646Z,73.79
2022-09-09T01:36:47.971Z,73.93
2022-09-09T01:39:16.563Z,73.93
2022-09-09T01:41:47.140Z,74.20
2022-09-09T01:44:19.329Z,74.35
2022-09-09T01:46:47.898Z,74.67
2022-09-09T01:49:21.594Z,74.83
2022-09-09T01:51:54.508Z,74.95
2022-09-09T01:54:33.020Z,75.22
2022-09-09T01:57:13.660Z,75.31
2022-09-09T01:59:57.094Z,75.00
2022-09-09T02:02:32.677Z,75.44
2022-09-09T02:05:23.938Z,75.13
2022-09-09T02:07:57.562Z,75.04
2022-09-09T02:10:49.335Z,74.95
2022-09-09T02:13:34.290Z,75.08
2022-09-09T02:16:09.250Z,74.94
2022-09-09T02:18:42.387Z,75.00
2022-09-09T02:21:14.822Z,75.01
2022-09-09T02:23:44.559Z,75.15
2022-09-09T02:26:21.256Z,75.07
2022-09-09T02:28:58.706Z,75.04
2022-09-09T02:31:27.875Z,74.98
2022-09-09T02:34:04.249Z,74.96
2022-09-09T02:36:36.399Z,74.80
2022-09-09T02:39:07.521Z,74.55
2022-09-09T02:41:41.028Z,74.36
2022-09-09T02:44:13.805Z,74.09
2022-09-09T02:46:59.760Z,74.06
2022-09-09T02:49:35.821Z,74.26
2022-09-09T02:52:09.102Z,74.40
2022-09-09T02:54:40.791Z,74.70
2022-09-09T02:57:17.156Z,74.89
2022-09-09T02:59:50.941Z,74.69
2022-09-09T03:02:19.847Z,74.61
2022-09-09T03:04:53.147Z,74.80
2022-09-09T03:07:22.496Z,74.52
2022-09-09T03:09:55.968Z,74.18
2022-09-09T03:12:27.370Z,74.62
2022-09-09T03:14:57.073Z,74.53
2022-09-09T03:17:26.116Z,74.68
2022-09-09T03:19:57.240Z,74.32
2022-09-09T03:22:26.374Z,74.18
2022-09-09T03:24:55.977Z,74.19
2022-09-09T03:27:24.850Z,74.58
2022-09-09T03:29:57.010Z,74.75
2022-09-09T03:32:28.104Z,74.84
2022-09-09T03:34:58.415Z,74.99
2022-09-09T03:37:27.271Z,74.92
2022-09-09T03:39:56.590Z,74.86
2022-09-09T03:42:25.706Z,74.73
2022-09-09T03:44:58.968Z,74.41
2022-09-09T03:47:27.904Z,74.82
2022-09-09T03:50:02.564Z,75.08
2022-09-09T03:52:31.837Z,74.93
2022-09-09T03:55:00.239Z,74.61
2022-09-09T03:57:31.068Z,74.69
2022-09-09T04:00:02.141Z,74.69
2022-09-09T04:02:34.066Z,75.07
2022-09-09T04:05:02.557Z,75.31
2022-09-09T04:07:30.790Z,75.15
2022-09-09T04:09:59.021Z,75.29
2022-09-09T04:12:27.508Z,75.52
2022-09-09T04:14:55.856Z,75.54
2022-09-09T04:17:25.543Z,76.05
2022-09-09T04:19:53.857Z,76.10
2022-09-09T04:22:23.555Z,76.12
2022-09-09T04:24:51.989Z,76.30
2022-09-09T04:27:21.531Z,76.59
2022-09-09T04:29:49.812Z,76.37
2022-09-09T04:32:18.682Z,76.40
2022-09-09T04:34:49.203Z,76.14
2022-09-09T04:37:17.893Z,75.82
2022-09-09T04:39:46.336Z,75.59
2022-09-09T04:42:14.777Z,75.21
2022-09-09T04:44:46.281Z,75.13
2022-09-09T04:47:15.971Z,74.96
2022-09-09T04:49:44.256Z,74.80
2022-09-09T04:52:14.234Z,74.87
2022-09-09T04:54:42.510Z,75.04
2022-09-09T04:57:17.939Z,75.23
2022-09-09T04:59:47.553Z,75.57
2022-09-09T05:02:16.597Z,75.72
2022-09-09T05:04:44.921Z,75.75
2022-09-09T05:07:15.802Z,75.93
2022-09-09T05:09:44.341Z,76.08
2022-09-09T05:12:12.597Z,76.13
2022-09-09T05:14:47.853Z,76.41
2022-09-09T05:17:17.447Z,76.29
2022-09-09T05:19:45.953Z,76.24
2022-09-09T05:22:15.688Z,76.42
2022-09-09T05:24:47.117Z,76.17
2022-09-09T05:27:16.231Z,76.90
2022-09-09T05:29:45.709Z,77.28
2022-09-09T05:32:16.550Z,77.40
2022-09-09T05:34:48.320Z,77.59
2022-09-09T05:37:19.368Z,77.78
2022-09-09T05:39:47.698Z,77.85
2022-09-09T05:42:16.197Z,77.96
2022-09-09T05:44:45.975Z,77.98
2022-09-09T05:47:14.470Z,78.06
2022-09-09T05:49:43.786Z,77.77
2022-09-09T05:52:12.364Z,77.68
2022-09-09T05:54:43.256Z,78.07
2022-09-09T05:57:11.684Z,78.33
2022-09-09T05:59:40.024Z,78.48
2022-09-09T06:02:08.651Z,78.55
2022-09-09T06:04:39.690Z,78.60
2022-09-09T06:07:08.122Z,78.49
2022-09-09T06:09:37.099Z,78.67
2022-09-09T06:12:07.706Z,78.99
2022-09-09T06:14:38.001Z,78.89
2022-09-09T06:17:07.738Z,79.11
2022-09-09T06:19:37.062Z,78.78
2022-09-09T06:22:06.516Z,79.00
2022-09-09T06:24:37.892Z,79.18
2022-09-09T06:27:08.418Z,79.11
2022-09-09T06:29:38.245Z,78.99
2022-09-09T06:32:09.610Z,79.05
2022-09-09T06:34:38.185Z,79.18
2022-09-09T06:37:07.694Z,79.37
2022-09-09T06:39:44.510Z,79.38
2022-09-09T06:42:14.576Z,79.43
2022-09-09T06:44:53.406Z,79.43
2022-09-09T06:47:37.445Z,79.86
2022-09-09T06:50:07.209Z,79.62
2022-09-09T06:52:36.745Z,79.68
2022-09-09T06:55:06.047Z,80.01
2022-09-09T06:57:37.895Z,79.75
2022-09-09T07:00:18.066Z,79.80
2022-09-09T07:02:46.520Z,80.13
2022-09-09T07:05:16.439Z,80.03
2022-09-09T07:07:46.819Z,80.00
2022-09-09T07:10:20.914Z,76.08
2022-09-09T07:12:54.420Z,77.50
2022-09-09T07:15:25.951Z,78.20
2022-09-09T07:17:55.600Z,78.58
2022-09-09T07:20:23.990Z,79.01
2022-09-09T07:22:57.469Z,79.21
2022-09-09T07:25:25.800Z,79.51
2022-09-09T07:27:55.693Z,79.76
2022-09-09T07:30:27.633Z,79.81
2022-09-09T07:32:57.920Z,79.80
2022-09-09T07:35:27.302Z,79.71
2022-09-09T07:37:55.507Z,79.65
2022-09-09T07:40:23.935Z,79.38
2022-09-09T07:42:52.651Z,78.92
2022-09-09T07:45:23.396Z,78.85
2022-09-09T07:47:52.246Z,79.09
2022-09-09T07:50:20.949Z,78.53
2022-09-09T07:52:49.629Z,77.79
2022-09-09T07:55:18.108Z,77.80
2022-09-09T07:57:46.989Z,77.26
2022-09-09T08:00:17.271Z,76.59
2022-09-09T08:02:55.338Z,76.16
2022-09-09T08:05:24.664Z,76.32
2022-09-09T08:07:53.001Z,76.28
2022-09-09T08:10:21.684Z,76.40
2022-09-09T08:13:14.633Z,76.45
2022-09-09T08:15:40.822Z,77.01
2022-09-09T08:18:10.904Z,76.90
2022-09-09T08:20:39.979Z,77.02
2022-09-09T08:23:08.692Z,76.69
2022-09-09T08:25:37.265Z,76.20
2022-09-09T08:28:05.523Z,75.36
2022-09-09T08:30:33.919Z,74.92
2022-09-09T08:33:02.339Z,73.34
2022-09-09T08:35:33.638Z,72.91
2022-09-09T08:38:04.631Z,73.11
2022-09-09T08:40:41.696Z,73.84
2022-09-09T08:43:10.571Z,73.68
2022-09-09T08:45:50.643Z,73.48
2022-09-09T08:48:36.789Z,73.06
2022-09-09T08:51:09.821Z,71.97
2022-09-09T08:53:44.768Z,71.40
2022-09-09T08:56:16.709Z,72.42
2022-09-09T08:58:52.749Z,73.52
2022-09-09T09:01:43.149Z,73.00
2022-09-09T09:04:32.515Z,72.56
2022-09-09T09:07:10.899Z,71.96
2022-09-09T09:09:48.735Z,71.36
2022-09-09T09:12:20.434Z,71.29
2022-09-09T09:14:50.761Z,71.05
2022-09-09T09:17:22.296Z,71.56
2022-09-09T09:19:52.020Z,71.67
2022-09-09T09:22:23.376Z,71.86
2022-09-09T09:24:57.567Z,72.62
2022-09-09T09:27:34.334Z,72.94
2022-09-09T09:30:27.157Z,73.01
2022-09-09T09:33:05.076Z,72.81
2022-09-09T09:35:37.342Z,72.17
2022-09-09T09:41:07.122Z,70.66
2022-09-09T09:43:37.346Z,70.08
2022-09-09T09:46:24.966Z,69.44
2022-09-09T09:49:00.107Z,69.18
2022-09-09T09:51:31.762Z,68.86
2022-09-09T09:54:17.312Z,68.58
2022-09-09T09:56:50.114Z,68.28
2022-09-09T09:59:38.594Z,67.58
2022-09-09T10:02:19.177Z,67.23
2022-09-09T10:04:51.346Z,67.70
2022-09-09T10:07:22.599Z,68.65
2022-09-09T10:09:56.021Z,68.51
2022-09-09T10:12:37.914Z,66.12
2022-09-09T10:15:18.950Z,65.25
2022-09-09T10:17:57.213Z,63.98
2022-09-09T10:20:38.719Z,63.09
2022-09-09T10:23:21.806Z,62.21
2022-09-09T10:26:09.870Z,61.42
2022-09-09T10:29:04.318Z,60.44
2022-09-09T10:31:39.561Z,58.89
2022-09-09T10:34:21.215Z,56.79
2022-09-09T10:36:52.589Z,54.42
2022-09-09T10:39:34.797Z,52.92
2022-09-09T10:42:10.120Z,51.31
2022-09-09T10:45:03.309Z,51.67
2022-09-09T10:48:01.386Z,52.22
2022-09-09T10:51:03.986Z,50.12
2022-09-09T10:53:46.897Z,51.30
2022-09-09T10:56:20.944Z,50.15
2022-09-09T10:58:55.648Z,47.66
2022-09-09T11:01:27.945Z,48.45
2022-09-09T11:04:00.319Z,48.78
2022-09-09T11:06:34.905Z,50.37
2022-09-09T11:09:06.273Z,49.17
2022-09-09T11:11:41.344Z,48.97
2022-09-09T11:14:18.420Z,47.94
2022-09-09T11:16:52.922Z,46.42
2022-09-09T11:19:28.677Z,47.23
2022-09-09T11:21:59.433Z,47.75
2022-09-09T11:24:33.207Z,45.10
2022-09-09T11:27:13.188Z,44.83
2022-09-09T11:30:13.966Z,45.49
2022-09-09T11:33:11.885Z,45.93
2022-09-09T11:36:08.146Z,44.89
2022-09-09T11:38:47.565Z,44.47
2022-09-09T11:41:21.678Z,44.88
2022-09-09T11:43:53.220Z,45.81
2022-09-09T11:46:34.759Z,46.50
2022-09-09T11:49:05.699Z,46.44
2022-09-09T11:51:36.466Z,46.78
2022-09-09T11:54:21.930Z,47.46
2022-09-09T11:56:50.366Z,44.89
2022-09-09T11:59:23.337Z,45.54
2022-09-09T12:01:59.817Z,46.70
2022-09-09T12:04:34.607Z,46.51
2022-09-09T12:07:05.281Z,46.30
2022-09-09T12:09:47.233Z,45.76
2022-09-09T12:12:31.050Z,45.20
2022-09-09T12:15:21.919Z,45.69
2022-09-09T12:17:54.359Z,45.82
2022-09-09T12:20:25.332Z,47.39
2022-09-09T12:23:06.111Z,45.66
2022-09-09T12:25:46.102Z,46.79
2022-09-09T12:28:20.014Z,46.13
2022-09-09T12:30:56.476Z,46.29
2022-09-09T12:33:26.248Z,46.82
2022-09-09T12:36:01.703Z,46.68
2022-09-09T12:38:36.845Z,44.96
2022-09-09T12:41:07.473Z,45.40
2022-09-09T12:43:35.741Z,47.30
2022-09-09T12:46:10.907Z,48.33
2022-09-09T12:48:43.685Z,47.13
2022-09-09T12:51:21.567Z,47.10
2022-09-09T12:53:51.352Z,46.09
2022-09-09T12:56:24.220Z,45.82
2022-09-09T12:58:55.410Z,46.90
2022-09-09T13:01:27.966Z,47.37
2022-09-09T13:03:58.410Z,46.47
2022-09-09T13:06:29.476Z,46.14
2022-09-09T13:09:00.023Z,45.49
2022-09-09T13:11:32.276Z,45.27
2022-09-09T13:14:01.609Z,45.13
2022-09-09T13:16:33.848Z,44.54
2022-09-09T13:19:11.321Z,43.79
2022-09-09T13:21:41.277Z,43.38
2022-09-09T13:24:28.503Z,41.92
2022-09-09T13:26:58.741Z,42.30
2022-09-09T13:29:27.069Z,42.33
2022-09-09T13:31:56.785Z,42.98
2022-09-09T13:34:31.853Z,42.43
2022-09-09T13:37:03.792Z,42.49
2022-09-09T13:39:32.218Z,42.10
2022-09-09T13:42:00.635Z,42.00
2022-09-09T13:44:31.589Z,42.17
2022-09-09T13:47:10.015Z,42.39
2022-09-09T13:49:40.428Z,42.20
2022-09-09T13:52:14.680Z,42.72
2022-09-09T13:54:43.542Z,42.29
2022-09-09T13:57:19.162Z,42.13
2022-09-09T14:00:04.057Z,41.71
2022-09-09T14:02:33.316Z,41.62
2022-09-09T14:05:02.994Z,42.28
2022-09-09T14:07:31.372Z,41.32
2022-09-09T14:10:01.322Z,41.78
2022-09-09T14:12:31.056Z,42.22
2022-09-09T14:15:00.886Z,42.35
2022-09-09T14:17:31.568Z,42.65
2022-09-09T14:20:00.575Z,42.38
2022-09-09T14:22:30.627Z,42.84
2022-09-09T14:24:59.064Z,42.77
2022-09-09T14:27:28.129Z,42.83
2022-09-09T14:29:56.747Z,43.15
2022-09-09T14:32:25.118Z,42.34
2022-09-09T14:34:53.380Z,41.62
2022-09-09T14:37:21.780Z,41.57
2022-09-09T14:39:51.805Z,41.59
2022-09-09T14:42:20.625Z,41.66
2022-09-09T14:44:48.894Z,41.70
2022-09-09T14:47:17.248Z,41.04
2022-09-09T14:49:47.152Z,40.15
2022-09-09T14:52:15.782Z,40.76
2022-09-09T14:54:43.990Z,40.42
2022-09-09T14:57:13.684Z,40.31
2022-09-09T14:59:41.935Z,40.73
2022-09-09T15:02:11.216Z,41.08
2022-09-09T15:04:39.650Z,40.92
2022-09-09T15:07:07.963Z,40.80
2022-09-09T15:09:38.012Z,41.09
2022-09-09T15:12:06.865Z,42.15
2022-09-09T15:14:37.397Z,41.26
2022-09-09T15:17:05.788Z,41.10
2022-09-09T15:19:34.520Z,41.40
2022-09-09T15:22:02.967Z,40.65
2022-09-09T15:24:31.182Z,39.85
2022-09-09T15:27:00.545Z,39.29
2022-09-09T15:29:28.837Z,38.99
2022-09-09T15:31:58.746Z,38.83
2022-09-09T15:34:27.281Z,38.84
2022-09-09T15:36:56.476Z,38.46
2022-09-09T15:39:24.905Z,38.29
2022-09-09T15:41:53.468Z,38.61
2022-09-09T15:44:21.668Z,38.61
2022-09-09T15:46:52.510Z,39.73
2022-09-09T15:49:25.907Z,38.52
2022-09-09T15:51:56.175Z,39.24
2022-09-09T15:54:26.029Z,38.94
2022-09-09T15:56:57.140Z,39.40
2022-09-09T15:59:26.590Z,40.01
2022-09-09T16:01:56.135Z,39.36
2022-09-09T16:04:26.533Z,39.59
2022-09-09T16:06:56.471Z,39.68
2022-09-09T16:09:24.684Z,39.69
2022-09-09T16:11:54.396Z,39.15
2022-09-09T16:14:22.936Z,40.02
2022-09-09T16:16:51.265Z,39.55
2022-09-09T16:19:19.853Z,39.24
2022-09-09T16:21:51.543Z,38.64
2022-09-09T16:24:21.561Z,38.68
2022-09-09T16:26:52.061Z,38.53
2022-09-09T16:29:22.523Z,38.71
2022-09-09T16:31:51.576Z,38.67
2022-09-09T16:34:20.487Z,38.68
2022-09-09T16:36:50.996Z,39.01
2022-09-09T16:39:22.574Z,39.39
2022-09-09T16:41:51.368Z,39.75
2022-09-09T16:44:20.502Z,40.13
2022-09-09T16:46:56.665Z,40.44
2022-09-09T16:49:26.530Z,40.84
2022-09-09T16:51:56.235Z,41.83
2022-09-09T16:54:26.476Z,41.81
2022-09-09T16:56:55.181Z,41.21
2022-09-09T16:59:24.561Z,41.32
2022-09-09T17:01:54.550Z,42.07
2022-09-09T17:04:25.330Z,40.97
2022-09-09T17:06:56.938Z,41.45
2022-09-09T17:09:29.948Z,41.21
2022-09-09T17:11:58.609Z,40.50
2022-09-09T17:14:26.849Z,40.74
2022-09-09T17:16:55.255Z,40.95
2022-09-09T17:19:23.511Z,41.04
2022-09-09T17:22:16.830Z,40.95
2022-09-09T17:24:41.532Z,40.81
2022-09-09T17:27:10.049Z,40.39
2022-09-09T17:29:38.624Z,40.87
2022-09-09T17:32:08.279Z,40.89
2022-09-09T17:34:37.192Z,41.04
2022-09-09T17:37:07.059Z,41.39
2022-09-09T17:39:35.514Z,41.83
2022-09-09T17:42:05.472Z,41.70
2022-09-09T17:44:34.403Z,42.06
2022-09-09T17:47:05.035Z,42.33
2022-09-09T17:49:33.328Z,42.69
2022-09-09T17:52:01.660Z,42.61
2022-09-09T17:54:29.927Z,42.85
2022-09-09T17:56:58.713Z,43.57
2022-09-09T17:59:28.449Z,44.00
2022-09-09T18:01:57.236Z,44.18
2022-09-09T18:04:25.671Z,45.24
2022-09-09T18:06:55.697Z,45.78
2022-09-09T18:09:25.746Z,46.17
2022-09-09T18:11:56.462Z,46.69
2022-09-09T18:14:27.389Z,46.94
2022-09-09T18:16:57.049Z,46.78
2022-09-09T18:19:28.989Z,46.80
2022-09-09T18:22:00.206Z,48.35
2022-09-09T18:24:31.752Z,48.81
2022-09-09T18:27:00.284Z,48.93
2022-09-09T18:29:29.911Z,49.96
2022-09-09T18:31:59.561Z,50.69
2022-09-09T18:34:28.848Z,50.19
2022-09-09T18:36:57.956Z,49.22
2022-09-09T18:39:29.922Z,48.78
2022-09-09T18:42:00.599Z,48.90
2022-09-09T18:44:32.805Z,48.87
2022-09-09T18:47:03.711Z,49.21
2022-09-09T18:49:33.431Z,49.76
2022-09-09T18:52:02.843Z,49.74
2022-09-09T18:54:33.586Z,49.38
2022-09-09T18:57:02.284Z,50.02
2022-09-09T18:59:31.324Z,50.45
2022-09-09T19:02:02.613Z,50.50
2022-09-09T19:04:33.146Z,50.53
2022-09-09T19:07:01.414Z,50.70
2022-09-09T19:09:32.617Z,50.69
2022-09-09T19:12:02.336Z,50.77
2022-09-09T19:14:31.551Z,51.03
2022-09-09T19:17:00.553Z,51.39
2022-09-09T19:19:32.017Z,51.95
2022-09-09T19:22:00.808Z,52.89
2022-09-09T19:24:31.904Z,53.01
2022-09-09T19:27:02.922Z,52.77
2022-09-09T19:29:33.873Z,53.21
2022-09-09T19:32:49.750Z,53.67
2022-09-09T19:34:53.929Z,54.19
2022-09-09T19:37:22.559Z,54.21
2022-09-09T19:39:51.522Z,54.27
2022-09-09T19:42:19.859Z,54.68
2022-09-09T19:44:48.085Z,54.42
2022-09-09T19:47:16.756Z,54.82
2022-09-09T19:49:47.418Z,54.33
2022-09-09T19:52:17.887Z,53.59
2022-09-09T19:54:46.809Z,53.37
2022-09-09T19:57:15.634Z,53.04
2022-09-09T19:59:44.126Z,53.37
2022-09-09T20:02:15.602Z,53.74
2022-09-09T20:04:44.890Z,54.17
2022-09-09T20:07:13.652Z,54.22
2022-09-09T20:09:45.055Z,54.19
2022-09-09T20:12:13.736Z,53.82
2022-09-09T20:14:41.982Z,54.72
2022-09-09T20:17:10.529Z,54.91
2022-09-09T20:19:39.935Z,55.04
2022-09-09T20:22:08.437Z,55.36
2022-09-09T20:24:37.839Z,55.61
2022-09-09T20:27:08.465Z,55.40
2022-09-09T20:29:37.675Z,56.25
2022-09-09T20:32:06.904Z,57.02
2022-09-09T20:34:37.175Z,56.85
2022-09-09T20:37:06.039Z,57.43
2022-09-09T20:39:36.127Z,58.03
2022-09-09T20:42:05.317Z,57.91
2022-09-09T20:44:35.073Z,57.41
2022-09-09T20:47:06.725Z,58.35
2022-09-09T20:49:36.364Z,58.04
2022-09-09T20:52:06.154Z,57.83
2022-09-09T20:54:36.195Z,57.45
2022-09-09T20:57:07.310Z,57.05
2022-09-09T20:59:37.307Z,56.99
2022-09-09T21:02:05.768Z,56.65
2022-09-09T21:04:34.206Z,56.75
2022-09-09T21:07:02.626Z,56.30
2022-09-09T21:09:31.173Z,56.20
2022-09-09T21:11:59.631Z,56.18
2022-09-09T21:14:28.577Z,56.41
2022-09-09T21:16:58.207Z,55.83
2022-09-09T21:19:26.632Z,55.54
2022-09-09T21:21:54.872Z,55.34
2022-09-09T21:24:23.146Z,55.22
2022-09-09T21:26:51.407Z,54.98
2022-09-09T21:29:19.758Z,54.93
2022-09-09T21:31:48.019Z,55.10
2022-09-09T21:34:18.533Z,55.14
2022-09-09T21:36:46.948Z,55.47
2022-09-09T21:39:16.310Z,55.28
2022-09-09T21:41:44.649Z,55.35
2022-09-09T21:44:15.224Z,55.52
2022-09-09T21:46:44.516Z,55.61
2022-09-09T21:49:12.848Z,55.76
2022-09-09T21:51:42.612Z,56.06
2022-09-09T21:54:10.880Z,56.54
2022-09-09T21:56:39.676Z,56.30
2022-09-09T21:59:08.899Z,56.90
2022-09-09T22:01:37.261Z,56.81
2022-09-09T22:04:05.632Z,57.32
2022-09-09T22:06:34.262Z,57.95
2022-09-09T22:09:04.089Z,57.98
2022-09-09T22:11:32.519Z,57.99
2022-09-09T22:14:02.679Z,58.25
2022-09-09T22:16:34.233Z,58.82
2022-09-09T22:19:03.128Z,59.01
2022-09-09T22:21:36.954Z,59.28
2022-09-09T22:24:08.242Z,59.50
2022-09-09T22:26:38.822Z,59.70
2022-09-09T22:29:08.065Z,59.65
2022-09-09T22:31:37.285Z,60.15
2022-09-09T22:34:06.264Z,60.24
2022-09-09T22:36:35.152Z,60.12
2022-09-09T22:39:03.575Z,59.99
2022-09-09T22:41:33.990Z,59.88
2022-09-09T22:44:02.427Z,59.82
2022-09-09T22:46:30.857Z,59.79
2022-09-09T22:48:59.312Z,59.86
2022-09-09T22:51:30.106Z,60.53
2022-09-09T22:53:59.893Z,60.54
2022-09-09T22:56:28.322Z,60.49
2022-09-09T22:58:58.688Z,60.41
2022-09-09T23:01:29.686Z,60.80
2022-09-09T23:04:01.769Z,60.53
2022-09-09T23:06:31.830Z,60.29
2022-09-09T23:09:01.852Z,59.79
2022-09-09T23:11:31.923Z,58.63
2022-09-09T23:14:03.851Z,59.17
2022-09-09T23:16:34.507Z,60.27
2022-09-09T23:19:03.217Z,59.93
2022-09-09T23:21:32.467Z,59.69
2022-09-09T23:24:01.236Z,59.65
2022-09-09T23:26:30.081Z,60.00
2022-09-09T23:28:59.983Z,59.90
2022-09-09T23:31:33.104Z,59.84
2022-09-09T23:34:02.242Z,59.91
2022-09-09T23:36:31.327Z,59.89
2022-09-09T23:39:01.801Z,59.76
2022-09-09T23:41:30.649Z,60.05
2022-09-09T23:43:59.121Z,60.14
2022-09-09T23:46:31.641Z,60.13
2022-09-09T23:49:00.482Z,60.43
2022-09-09T23:51:31.106Z,60.59
2022-09-09T23:54:04.856Z,60.68
2022-09-09T23:56:34.940Z,60.74
2022-09-09T23:59:03.269Z,60.62
